Time;durP1;ratioP1;P1;durP2;ratioP2;P2;SDS_P1;SDS_P2;PMS_P1;PMS_P2;Temp;Humidity;BMP_temperature;BMP_pressure;BME280_temperature;BME280_humidity;BME280_pressure;Samples;Min_cycle;Max_cycle;Signal;HPM_P1;HPM_P2
2022/07/31 00:00:25;;;;;;;15.20;13.75;;;17.10;99.90;;;;;;2106242;28;20028;-75
2022/07/31 00:01:26;;;;;;;16.13;14.52;;;17.20;99.90;;;;;;2105777;28;20041;-77
2022/07/31 00:02:26;;;;;;;15.00;13.60;;;17.10;99.90;;;;;;2105269;28;20036;-74
2022/07/31 00:03:27;;;;;;;14.70;13.30;;;17.10;99.90;;;;;;2097231;28;20088;-75
2022/07/31 00:04:28;;;;;;;15.85;14.25;;;17.10;99.90;;;;;;2097282;28;20029;-75
2022/07/31 00:05:29;;;;;;;15.85;14.25;;;17.10;99.90;;;;;;2105595;28;20040;-75
2022/07/31 00:06:30;;;;;;;15.82;13.70;;;17.10;99.90;;;;;;2114844;28;20467;-76
2022/07/31 00:07:31;;;;;;;14.63;13.23;;;17.10;99.90;;;;;;2114866;28;20031;-76
2022/07/31 00:08:31;;;;;;;14.55;13.05;;;17.10;99.90;;;;;;2105589;28;20024;-76
2022/07/31 00:09:32;;;;;;;14.60;13.23;;;17.10;99.90;;;;;;2096733;28;20383;-74
2022/07/31 00:10:33;;;;;;;15.68;14.10;;;17.10;99.90;;;;;;2105311;28;20063;-76
2022/07/31 00:11:34;;;;;;;16.60;14.90;;;17.10;99.90;;;;;;2105824;28;20069;-74
2022/07/31 00:12:35;;;;;;;15.75;14.25;;;17.00;99.90;;;;;;2113874;28;20031;-73
2022/07/31 00:13:35;;;;;;;16.73;15.10;;;17.00;99.90;;;;;;2114030;28;20030;-75
2022/07/31 00:14:36;;;;;;;15.75;14.15;;;17.00;99.90;;;;;;2104787;28;20023;-71
2022/07/31 00:15:36;;;;;;;16.65;15.02;;;17.00;99.90;;;;;;2104654;28;20104;-72
2022/07/31 00:16:37;;;;;;;16.40;14.80;;;17.00;99.90;;;;;;2114383;28;20028;-75
2022/07/31 00:17:39;;;;;;;16.55;14.85;;;17.00;99.90;;;;;;2105557;28;20036;-72
2022/07/31 00:18:40;;;;;;;16.38;14.70;;;17.00;99.90;;;;;;2105266;28;20115;-72
2022/07/31 00:19:40;;;;;;;17.30;15.60;;;16.90;99.90;;;;;;2104832;28;20020;-72
2022/07/31 00:20:43;;;;;;;16.90;15.23;;;16.90;99.90;;;;;;2104980;28;20028;-74
2022/07/31 00:21:43;;;;;;;17.50;15.70;;;16.90;99.90;;;;;;2104656;28;20461;-76
2022/07/31 00:22:46;;;;;;;17.95;16.05;;;16.90;99.90;;;;;;2105494;28;20020;-73
2022/07/31 00:23:47;;;;;;;18.20;16.40;;;16.90;99.90;;;;;;2105550;28;20110;-75
2022/07/31 00:24:47;;;;;;;18.70;16.52;;;16.90;99.90;;;;;;2097057;28;20504;-75
2022/07/31 00:25:48;;;;;;;18.45;16.55;;;16.90;99.90;;;;;;2105486;28;20761;-73
2022/07/31 00:26:49;;;;;;;17.60;15.70;;;16.90;99.90;;;;;;2105318;28;20536;-75
2022/07/31 00:27:50;;;;;;;16.90;15.10;;;16.80;99.90;;;;;;2105374;28;20066;-73
2022/07/31 00:28:50;;;;;;;17.45;15.68;;;16.80;99.90;;;;;;2105196;28;20540;-76
2022/07/31 00:29:51;;;;;;;17.75;15.80;;;16.80;99.90;;;;;;2105076;28;20028;-75
2022/07/31 00:30:52;;;;;;;17.30;15.50;;;16.80;99.90;;;;;;2105878;28;20031;-75
2022/07/31 00:31:52;;;;;;;17.95;16.13;;;16.80;99.90;;;;;;2097586;28;20143;-75
2022/07/31 00:32:53;;;;;;;18.27;16.38;;;16.80;99.90;;;;;;2097111;28;20628;-74
2022/07/31 00:33:54;;;;;;;18.60;16.10;;;16.80;99.90;;;;;;2096959;28;20090;-75
2022/07/31 00:34:55;;;;;;;17.55;15.85;;;16.80;99.90;;;;;;2097075;28;20042;-73
2022/07/31 00:35:56;;;;;;;19.98;16.65;;;16.80;99.90;;;;;;2104617;28;20137;-73
2022/07/31 00:36:56;;;;;;;18.75;15.77;;;16.70;99.90;;;;;;2104408;28;20032;-73
2022/07/31 00:37:57;;;;;;;18.65;16.70;;;16.70;99.90;;;;;;2104824;28;20073;-73
2022/07/31 00:38:58;;;;;;;18.70;16.63;;;16.70;99.90;;;;;;2104720;28;20020;-72
2022/07/31 00:39:59;;;;;;;19.73;16.45;;;16.70;99.90;;;;;;2114106;28;20597;-72
2022/07/31 00:40:59;;;;;;;19.13;16.85;;;16.70;99.90;;;;;;2113828;28;20059;-72
2022/07/31 00:42:00;;;;;;;18.77;16.80;;;16.70;99.90;;;;;;2104537;28;20024;-72
2022/07/31 00:43:01;;;;;;;17.92;16.13;;;16.70;99.90;;;;;;2096748;28;20143;-73
2022/07/31 00:44:02;;;;;;;19.02;17.00;;;16.70;99.90;;;;;;2105260;28;20036;-75
2022/07/31 00:45:04;;;;;;;18.92;17.05;;;16.70;99.90;;;;;;2105144;28;20598;-74
2022/07/31 00:46:05;;;;;;;18.05;16.15;;;16.70;99.90;;;;;;2114074;28;20119;-74
2022/07/31 00:47:06;;;;;;;17.85;16.05;;;16.70;99.90;;;;;;2105359;28;20024;-74
2022/07/31 00:48:07;;;;;;;18.73;16.90;;;16.70;99.90;;;;;;2096911;28;20131;-74
2022/07/31 00:49:08;;;;;;;19.02;16.98;;;16.70;99.90;;;;;;2105320;28;20046;-76
2022/07/31 00:50:10;;;;;;;18.45;16.55;;;16.70;99.90;;;;;;2114537;28;20023;-75
2022/07/31 00:51:11;;;;;;;19.58;17.35;;;16.60;99.90;;;;;;2114355;28;20027;-75
2022/07/31 00:52:12;;;;;;;19.70;17.77;;;16.60;99.90;;;;;;2105564;28;20031;-74
2022/07/31 00:53:13;;;;;;;20.05;17.55;;;16.60;99.90;;;;;;2105720;28;20089;-74
2022/07/31 00:54:13;;;;;;;19.70;17.75;;;16.60;99.90;;;;;;2105220;28;20038;-75
2022/07/31 00:55:14;;;;;;;19.52;17.52;;;16.60;99.90;;;;;;2105352;28;20464;-75
2022/07/31 00:56:15;;;;;;;19.48;17.55;;;16.60;99.90;;;;;;2105298;28;20028;-75
2022/07/31 00:57:16;;;;;;;20.00;17.90;;;16.60;99.90;;;;;;2088907;28;20062;-75
2022/07/31 00:58:16;;;;;;;19.80;17.80;;;16.60;99.90;;;;;;2088939;28;20045;-74
2022/07/31 00:59:17;;;;;;;19.85;17.88;;;16.60;99.90;;;;;;2088466;28;20066;-74
2022/07/31 01:00:18;;;;;;;19.83;17.83;;;16.60;99.90;;;;;;2097101;28;20478;-75
2022/07/31 01:01:19;;;;;;;19.42;17.42;;;16.50;99.90;;;;;;2106987;28;20089;-73
2022/07/31 01:02:20;;;;;;;18.90;16.95;;;16.60;99.90;;;;;;2114212;28;20051;-77
2022/07/31 01:03:21;;;;;;;19.20;17.20;;;16.50;99.90;;;;;;2114051;28;20289;-76
2022/07/31 01:04:21;;;;;;;19.33;17.33;;;16.60;99.90;;;;;;2113961;28;20027;-72
2022/07/31 01:05:23;;;;;;;18.60;16.70;;;16.50;99.90;;;;;;2113138;28;20019;-73
2022/07/31 01:06:24;;;;;;;18.50;16.63;;;16.50;99.90;;;;;;2104905;28;20032;-73
2022/07/31 01:07:28;;;;;;;19.90;17.83;;;16.50;99.90;;;;;;2105000;28;20506;-76
2022/07/31 01:08:30;;;;;;;19.10;16.77;;;16.50;99.90;;;;;;2114513;28;20024;-74
2022/07/31 01:09:31;;;;;;;19.25;17.25;;;16.50;99.90;;;;;;2106358;28;20424;-75
2022/07/31 01:10:51;;;;;;;19.00;17.00;;;16.50;99.90;;;;;;2106193;28;20415;-73
2022/07/31 01:12:08;;;;;;;19.23;17.20;;;16.50;99.90;;;;;;2108575;28;20024;-75
2022/07/31 01:13:18;;;;;;;19.92;17.75;;;16.40;99.90;;;;;;2101426;28;20032;-73
2022/07/31 01:14:26;;;;;;;19.67;16.85;;;16.40;99.90;;;;;;2101472;28;20086;-75
2022/07/31 01:15:27;;;;;;;19.55;17.45;;;16.40;99.90;;;;;;2099742;28;20035;-75
2022/07/31 01:16:34;;;;;;;18.67;16.80;;;16.40;99.90;;;;;;2099753;28;20032;-74
2022/07/31 01:17:40;;;;;;;18.88;16.98;;;16.40;99.90;;;;;;2101005;28;20016;-74
2022/07/31 01:18:42;;;;;;;17.70;15.90;;;16.40;99.90;;;;;;2098903;28;20029;-74
2022/07/31 01:19:45;;;;;;;19.30;17.35;;;16.40;99.90;;;;;;2089862;28;20021;-73
2022/07/31 01:20:51;;;;;;;19.42;17.40;;;16.40;99.90;;;;;;2098214;28;20135;-76
2022/07/31 01:22:19;;;;;;;20.58;17.58;;;16.40;99.90;;;;;;2106312;28;20043;-75
2022/07/31 01:23:38;;;;;;;20.13;16.45;;;16.30;99.90;;;;;;2098251;28;20036;-76
2022/07/31 01:25:06;;;;;;;18.42;16.48;;;16.30;99.90;;;;;;2095374;28;20067;-75
2022/07/31 01:26:30;;;;;;;18.23;16.27;;;16.30;99.90;;;;;;2096687;28;20021;-76
2022/07/31 01:27:55;;;;;;;18.65;16.17;;;16.20;99.90;;;;;;2102652;28;20521;-76
2022/07/31 01:29:27;;;;;;;17.58;15.77;;;16.30;99.90;;;;;;2100303;28;20087;-77
2022/07/31 01:30:31;;;;;;;;;;;16.20;99.90;;;;;;2103166;28;20103;-76
2022/07/31 01:31:38;;;;;;;18.40;16.02;;;16.20;99.90;;;;;;2099723;28;19908;-77
2022/07/31 01:32:46;;;;;;;17.63;15.93;;;16.20;99.90;;;;;;2090637;28;20375;-76
2022/07/31 01:34:19;;;;;;;17.30;15.50;;;16.20;99.90;;;;;;2100864;28;20028;-77
2022/07/31 01:35:27;;;;;;;17.65;15.63;;;16.20;99.90;;;;;;2098453;28;20040;-76
2022/07/31 01:36:33;;;;;;;16.63;14.93;;;16.20;99.90;;;;;;2108240;28;20048;-76
2022/07/31 01:38:40;;;;;;;18.42;15.57;;;16.20;99.90;;;;;;2107810;28;20108;-79
2022/07/31 01:39:47;;;;;;;17.30;15.50;;;16.10;99.90;;;;;;2089293;28;20437;-75
2022/07/31 01:40:56;;;;;;;16.90;15.20;;;16.20;99.90;;;;;;2090085;28;20029;-73
2022/07/31 01:42:00;;;;;;;17.55;15.75;;;16.10;99.90;;;;;;2107353;28;20031;-75
2022/07/31 01:43:40;;;;;;;16.98;15.27;;;16.10;99.90;;;;;;2108810;28;20028;-76
2022/07/31 01:44:46;;;;;;;16.48;14.88;;;16.10;99.90;;;;;;2090277;28;20037;-76
2022/07/31 01:45:52;;;;;;;16.38;14.77;;;16.10;99.90;;;;;;2088322;28;20021;-75
2022/07/31 01:46:55;;;;;;;17.52;15.70;;;16.10;99.90;;;;;;2099760;28;20028;-74
2022/07/31 01:47:56;;;;;;;17.38;15.57;;;16.10;99.90;;;;;;2116346;28;20062;-75
2022/07/31 01:48:59;;;;;;;17.38;15.57;;;16.10;99.90;;;;;;2107491;28;20024;-74
2022/07/31 01:50:01;;;;;;;16.70;15.10;;;16.10;99.90;;;;;;2100613;28;20124;-75
2022/07/31 01:51:07;;;;;;;16.98;15.13;;;16.10;99.90;;;;;;2101692;28;20135;-73
2022/07/31 01:52:10;;;;;;;17.05;14.98;;;16.10;99.90;;;;;;2094909;28;20360;-73
2022/07/31 01:53:19;;;;;;;16.58;14.88;;;16.00;99.90;;;;;;2102255;28;20537;-73
2022/07/31 01:54:23;;;;;;;16.60;14.98;;;16.00;99.90;;;;;;2109583;28;20066;-76
2022/07/31 01:55:26;;;;;;;16.90;15.18;;;16.10;99.90;;;;;;2110579;28;20038;-77
2022/07/31 01:56:34;;;;;;;16.08;14.57;;;16.00;99.90;;;;;;2108356;28;20021;-74
2022/07/31 01:57:37;;;;;;;16.75;15.05;;;16.00;99.90;;;;;;2107861;28;20659;-75
2022/07/31 01:58:41;;;;;;;16.90;15.18;;;16.10;99.90;;;;;;2100045;28;20035;-75
2022/07/31 01:59:57;;;;;;;17.20;15.50;;;16.00;99.90;;;;;;2102888;28;20039;-73
2022/07/31 02:01:22;;;;;;;16.35;14.70;;;16.00;99.90;;;;;;2107094;28;20114;-74
2022/07/31 02:02:24;;;;;;;18.23;16.23;;;16.00;99.90;;;;;;2098729;28;20050;-75
2022/07/31 02:03:26;;;;;;;17.83;15.98;;;16.00;99.90;;;;;;2098637;28;20514;-74
2022/07/31 02:04:28;;;;;;;17.08;15.27;;;16.00;99.90;;;;;;2106723;28;20032;-75
2022/07/31 02:05:29;;;;;;;17.25;15.30;;;16.00;99.90;;;;;;2097958;28;20028;-73
2022/07/31 02:06:30;;;;;;;16.83;15.13;;;16.00;99.90;;;;;;2090217;28;20056;-75
2022/07/31 02:07:42;;;;;;;16.65;14.95;;;16.00;99.90;;;;;;2098515;28;20120;-75
2022/07/31 02:08:50;;;;;;;17.40;15.60;;;16.00;99.90;;;;;;2099741;28;20901;-74
2022/07/31 02:09:53;;;;;;;16.30;14.30;;;16.00;99.90;;;;;;2106288;28;20080;-72
2022/07/31 02:10:59;;;;;;;17.17;15.48;;;15.90;99.90;;;;;;2107728;28;20046;-73
2022/07/31 02:12:01;;;;;;;17.15;15.43;;;15.90;99.90;;;;;;2108009;28;20019;-73
2022/07/31 02:13:04;;;;;;;17.35;15.55;;;15.90;99.90;;;;;;2116650;28;20315;-73
2022/07/31 02:14:05;;;;;;;17.42;15.73;;;16.00;99.90;;;;;;2107820;28;20029;-74
2022/07/31 02:15:15;;;;;;;16.65;14.95;;;16.00;99.90;;;;;;2108165;28;20028;-73
2022/07/31 02:16:20;;;;;;;16.48;14.73;;;15.90;99.90;;;;;;2106336;28;20032;-73
2022/07/31 02:17:25;;;;;;;17.65;15.43;;;16.00;99.90;;;;;;2099001;28;20025;-74
2022/07/31 02:18:49;;;;;;;16.20;14.60;;;15.90;99.90;;;;;;2091627;28;20044;-74
2022/07/31 02:19:59;;;;;;;17.10;14.25;;;15.90;99.90;;;;;;2106069;28;20043;-74
2022/07/31 02:21:00;;;;;;;15.77;14.23;;;15.90;99.90;;;;;;2098674;28;20036;-73
2022/07/31 02:22:01;;;;;;;16.98;15.27;;;15.90;99.90;;;;;;2097944;28;20028;-74
2022/07/31 02:23:01;;;;;;;17.15;15.43;;;15.90;99.90;;;;;;2106290;28;20118;-74
2022/07/31 02:24:02;;;;;;;17.27;15.45;;;15.90;99.90;;;;;;2098094;28;20029;-74
2022/07/31 02:25:04;;;;;;;16.52;14.82;;;15.90;99.90;;;;;;2098305;28;20024;-75
2022/07/31 02:26:08;;;;;;;17.40;15.65;;;15.90;99.90;;;;;;2118683;28;20027;-75
2022/07/31 02:29:32;;;;;;;17.15;15.45;;;15.90;99.90;;;;;;2115707;28;20031;-74
2022/07/31 02:30:34;;;;;;;16.85;15.10;;;15.90;99.90;;;;;;2106342;28;20081;-75
2022/07/31 02:31:36;;;;;;;17.05;15.32;;;15.90;99.90;;;;;;2098044;28;20040;-74
2022/07/31 02:32:38;;;;;;;16.52;14.93;;;15.80;99.90;;;;;;2106482;28;20032;-74
2022/07/31 02:33:40;;;;;;;16.38;14.77;;;15.80;99.90;;;;;;2106122;28;20020;-73
2022/07/31 02:34:43;;;;;;;16.88;15.18;;;15.80;99.90;;;;;;2106625;28;20144;-75
2022/07/31 02:35:46;;;;;;;17.00;15.30;;;15.90;99.90;;;;;;2106128;28;20020;-74
2022/07/31 02:36:53;;;;;;;16.85;15.25;;;15.80;99.90;;;;;;2105975;28;20053;-75
2022/07/31 02:37:55;;;;;;;16.77;15.18;;;15.80;99.90;;;;;;2098309;28;20041;-74
2022/07/31 02:38:57;;;;;;;17.20;15.60;;;15.80;99.90;;;;;;2097929;28;20108;-74
2022/07/31 02:40:00;;;;;;;17.63;15.82;;;15.80;99.90;;;;;;2106405;28;20035;-75
2022/07/31 02:41:03;;;;;;;16.17;14.57;;;15.80;99.90;;;;;;2098220;28;20067;-74
2022/07/31 02:42:05;;;;;;;16.50;14.75;;;15.70;99.90;;;;;;2098411;28;20040;-74
2022/07/31 02:43:06;;;;;;;16.80;15.20;;;15.80;99.90;;;;;;2106578;28;20540;-76
2022/07/31 02:44:10;;;;;;;16.98;15.20;;;15.80;99.90;;;;;;2106350;28;20035;-75
2022/07/31 02:45:12;;;;;;;17.30;15.60;;;15.70;99.90;;;;;;2106419;28;20115;-75
2022/07/31 02:46:14;;;;;;;18.80;16.25;;;15.70;99.90;;;;;;2098336;28;20771;-74
2022/07/31 02:47:15;;;;;;;17.92;16.13;;;15.70;99.90;;;;;;2106714;28;20631;-75
2022/07/31 02:48:16;;;;;;;18.05;16.15;;;15.70;99.90;;;;;;2106357;28;20051;-76
2022/07/31 02:49:21;;;;;;;17.20;15.50;;;15.70;99.90;;;;;;2098792;28;20025;-75
2022/07/31 02:50:24;;;;;;;17.73;16.00;;;15.70;99.90;;;;;;2098032;28;20040;-76
2022/07/31 02:51:27;;;;;;;17.17;15.40;;;15.70;99.90;;;;;;2098101;28;20398;-75
2022/07/31 02:52:28;;;;;;;17.35;15.63;;;15.70;99.90;;;;;;2106737;28;20055;-75
2022/07/31 02:53:30;;;;;;;17.25;15.55;;;15.70;99.90;;;;;;2098276;28;20146;-74
2022/07/31 02:54:38;;;;;;;17.80;15.95;;;15.70;99.90;;;;;;2098261;28;20031;-75
2022/07/31 02:55:39;;;;;;;17.63;15.77;;;15.70;99.90;;;;;;2106095;28;20058;-74
2022/07/31 02:56:41;;;;;;;16.77;15.15;;;15.60;99.90;;;;;;2098242;28;20061;-74
2022/07/31 02:57:42;;;;;;;17.33;15.30;;;15.60;99.90;;;;;;2097944;28;20036;-75
2022/07/31 02:58:43;;;;;;;17.83;15.93;;;15.60;99.90;;;;;;2098053;28;20115;-75
2022/07/31 02:59:54;;;;;;;18.13;16.25;;;15.60;99.90;;;;;;2098939;28;20662;-75
2022/07/31 03:01:14;;;;;;;17.67;15.88;;;15.60;99.90;;;;;;2106321;28;20036;-75
2022/07/31 03:02:15;;;;;;;17.83;16.08;;;15.60;99.90;;;;;;2098261;28;20036;-76
2022/07/31 03:03:18;;;;;;;16.75;15.05;;;15.60;99.90;;;;;;2090261;28;20115;-75
2022/07/31 03:04:19;;;;;;;16.90;15.23;;;15.60;99.90;;;;;;2097997;28;20498;-74
2022/07/31 03:05:21;;;;;;;15.90;14.30;;;15.60;99.90;;;;;;2106430;28;20028;-76
2022/07/31 03:06:21;;;;;;;16.40;14.80;;;15.60;99.90;;;;;;2089341;28;20121;-76
2022/07/31 03:07:22;;;;;;;17.00;15.20;;;15.60;99.90;;;;;;2089299;28;20028;-76
2022/07/31 03:08:23;;;;;;;17.73;15.70;;;15.60;99.90;;;;;;2097857;28;20021;-76
2022/07/31 03:09:29;;;;;;;16.92;15.15;;;15.60;99.90;;;;;;2089868;28;20701;-75
2022/07/31 03:10:47;;;;;;;17.15;15.35;;;15.60;99.90;;;;;;2095112;28;20102;-76
2022/07/31 03:11:48;;;;;;;16.55;14.77;;;15.60;99.90;;;;;;2105736;28;20498;-73
2022/07/31 03:12:51;;;;;;;17.48;15.73;;;15.50;99.90;;;;;;2105600;28;20059;-74
2022/07/31 03:13:54;;;;;;;16.95;15.25;;;15.50;99.90;;;;;;2097501;28;20040;-74
2022/07/31 03:14:56;;;;;;;16.85;15.13;;;15.50;99.90;;;;;;2097259;28;20071;-74
2022/07/31 03:15:58;;;;;;;17.20;15.40;;;15.60;99.90;;;;;;2097102;28;20158;-74
2022/07/31 03:17:00;;;;;;;17.23;15.48;;;15.50;99.90;;;;;;2097020;28;20446;-74
2022/07/31 03:18:22;;;;;;;17.02;15.32;;;15.50;99.90;;;;;;2098628;28;20028;-72
2022/07/31 03:19:24;;;;;;;17.33;15.63;;;15.50;99.90;;;;;;2108567;28;20096;-74
2022/07/31 03:20:25;;;;;;;17.58;15.77;;;15.50;99.90;;;;;;2105249;28;20521;-73
2022/07/31 03:21:27;;;;;;;16.15;14.55;;;15.50;99.90;;;;;;2097631;28;20025;-71
2022/07/31 03:22:27;;;;;;;17.20;15.50;;;15.50;99.90;;;;;;2105551;28;20058;-74
2022/07/31 03:23:35;;;;;;;16.73;15.05;;;15.50;99.90;;;;;;2097007;28;20021;-72
2022/07/31 03:24:39;;;;;;;17.35;15.55;;;15.50;99.90;;;;;;2098385;28;20410;-72
2022/07/31 03:25:41;;;;;;;18.02;16.13;;;15.40;99.90;;;;;;2096855;28;20027;-72
2022/07/31 03:26:42;;;;;;;16.55;14.90;;;15.40;99.90;;;;;;2097078;28;20025;-72
2022/07/31 03:27:43;;;;;;;16.42;14.82;;;15.50;99.90;;;;;;2096774;28;20461;-72
2022/07/31 03:28:44;;;;;;;16.60;14.90;;;15.50;99.90;;;;;;2097035;28;20028;-74
2022/07/31 03:29:45;;;;;;;16.63;14.93;;;15.40;99.90;;;;;;2105377;28;20077;-72
2022/07/31 03:30:49;;;;;;;16.67;14.90;;;15.40;99.90;;;;;;2105350;28;20080;-72
2022/07/31 03:31:50;;;;;;;16.42;14.73;;;15.50;99.90;;;;;;2114430;28;20114;-74
2022/07/31 03:32:51;;;;;;;16.60;14.85;;;15.50;99.90;;;;;;2105226;28;20024;-72
2022/07/31 03:33:52;;;;;;;16.63;15.02;;;15.50;99.90;;;;;;2105118;28;20032;-74
2022/07/31 03:34:53;;;;;;;16.50;14.65;;;15.40;99.90;;;;;;2105505;28;20024;-72
2022/07/31 03:35:54;;;;;;;16.75;14.93;;;15.50;99.90;;;;;;2114189;28;20043;-72
2022/07/31 03:36:54;;;;;;;17.30;15.48;;;15.50;99.90;;;;;;2105147;28;20040;-74
2022/07/31 03:37:55;;;;;;;16.80;15.10;;;15.50;99.90;;;;;;2105354;28;20118;-71
2022/07/31 03:38:56;;;;;;;16.60;14.80;;;15.50;99.90;;;;;;2105193;28;20141;-72
2022/07/31 03:40:10;;;;;;;16.75;15.15;;;15.50;99.90;;;;;;2105232;28;20035;-73
2022/07/31 03:41:10;;;;;;;16.45;14.85;;;15.50;99.90;;;;;;2088904;28;20036;-74
2022/07/31 03:42:12;;;;;;;17.30;15.50;;;15.50;99.90;;;;;;2089177;28;20125;-72
2022/07/31 03:43:15;;;;;;;16.83;15.00;;;15.50;99.90;;;;;;2105673;28;20556;-72
2022/07/31 03:44:17;;;;;;;16.15;14.52;;;15.50;99.90;;;;;;2105175;28;20035;-71
2022/07/31 03:45:19;;;;;;;15.32;13.73;;;15.50;99.90;;;;;;2096775;28;20040;-72
2022/07/31 03:46:22;;;;;;;15.80;14.30;;;15.50;99.90;;;;;;2096905;28;20032;-73
2022/07/31 03:47:23;;;;;;;15.13;13.63;;;15.50;99.90;;;;;;2104678;28;20473;-72
2022/07/31 03:48:25;;;;;;;16.80;15.13;;;15.50;99.90;;;;;;2096641;28;20031;-74
2022/07/31 03:49:27;;;;;;;16.00;14.38;;;15.50;99.90;;;;;;2096834;28;20084;-72
2022/07/31 03:50:28;;;;;;;16.30;14.70;;;15.50;99.90;;;;;;2105131;28;20032;-72
2022/07/31 03:51:30;;;;;;;16.30;14.73;;;15.60;99.90;;;;;;2097051;28;20029;-73
2022/07/31 03:52:32;;;;;;;15.43;13.90;;;15.60;99.90;;;;;;2097107;28;20118;-73
2022/07/31 03:53:34;;;;;;;15.75;14.02;;;15.60;99.90;;;;;;2105287;28;20024;-72
2022/07/31 03:54:35;;;;;;;17.15;14.52;;;15.60;99.90;;;;;;2105031;28;20028;-74
2022/07/31 03:55:48;;;;;;;16.88;15.07;;;15.70;99.90;;;;;;2106818;28;20031;-73
2022/07/31 03:56:51;;;;;;;16.10;14.32;;;15.60;99.90;;;;;;2113827;28;20019;-75
2022/07/31 03:57:53;;;;;;;16.17;14.68;;;15.70;99.90;;;;;;2104973;28;20115;-73
2022/07/31 03:58:54;;;;;;;15.75;14.15;;;15.70;99.90;;;;;;2096511;28;20376;-73
2022/07/31 03:59:56;;;;;;;15.98;14.38;;;15.70;99.90;;;;;;2096937;28;20062;-74
2022/07/31 04:00:58;;;;;;;16.05;14.40;;;15.70;99.90;;;;;;2105256;28;20020;-73
2022/07/31 04:02:00;;;;;;;15.52;14.00;;;15.70;99.90;;;;;;2105314;28;20036;-74
2022/07/31 04:03:12;;;;;;;17.42;14.60;;;15.80;99.90;;;;;;2090071;28;20184;-75
2022/07/31 04:04:45;;;;;;;16.63;14.98;;;15.80;99.90;;;;;;2108259;28;20516;-76
2022/07/31 04:05:45;;;;;;;16.15;14.45;;;15.80;99.90;;;;;;2114888;28;20049;-74
2022/07/31 04:06:46;;;;;;;17.02;15.23;;;15.80;99.90;;;;;;2106785;28;20074;-76
2022/07/31 04:07:47;;;;;;;16.58;14.98;;;15.80;99.90;;;;;;2105259;28;20032;-75
2022/07/31 04:08:48;;;;;;;17.45;15.57;;;15.80;99.90;;;;;;2097061;28;20028;-75
2022/07/31 04:09:48;;;;;;;15.30;13.80;;;15.80;99.90;;;;;;2097063;28;20025;-75
2022/07/31 04:10:49;;;;;;;15.95;14.45;;;15.90;99.90;;;;;;2096615;28;20024;-74
2022/07/31 04:11:54;;;;;;;14.73;13.32;;;15.90;99.90;;;;;;2096507;28;20036;-73
2022/07/31 04:12:55;;;;;;;15.35;13.85;;;15.90;99.90;;;;;;2104940;28;20027;-73
2022/07/31 04:13:56;;;;;;;15.63;14.13;;;15.90;99.90;;;;;;2096769;28;20452;-74
2022/07/31 04:14:56;;;;;;;16.10;14.40;;;15.90;99.90;;;;;;2104736;28;20434;-73
2022/07/31 04:15:57;;;;;;;14.88;13.48;;;15.90;99.90;;;;;;2096372;28;20017;-72
2022/07/31 04:16:58;;;;;;;16.13;14.43;;;15.90;99.90;;;;;;2096209;28;20056;-72
2022/07/31 04:18:00;;;;;;;15.05;13.55;;;16.00;99.90;;;;;;2096593;28;20025;-72
2022/07/31 04:19:09;;;;;;;15.07;13.68;;;16.00;99.90;;;;;;2097810;28;20052;-73
2022/07/31 04:20:10;;;;;;;15.48;13.88;;;16.00;99.90;;;;;;2088163;28;20040;-73
2022/07/31 04:21:11;;;;;;;15.13;13.63;;;16.10;99.90;;;;;;2088274;28;20025;-71
2022/07/31 04:22:11;;;;;;;14.63;13.23;;;16.20;99.90;;;;;;2104852;28;20062;-73
2022/07/31 04:23:13;;;;;;;13.93;12.63;;;16.40;99.90;;;;;;2105005;28;20132;-72
2022/07/31 04:24:32;;;;;;;14.07;12.70;;;16.70;99.90;;;;;;2107566;28;20035;-74
2022/07/31 04:25:41;;;;;;;13.07;11.77;;;17.10;99.90;;;;;;2104837;28;20035;-73
2022/07/31 04:26:54;;;;;;;13.10;11.70;;;17.40;99.90;;;;;;2097404;28;20032;-72
2022/07/31 04:27:55;;;;;;;11.88;10.68;;;17.80;99.90;;;;;;2105271;28;20064;-73
2022/07/31 04:28:56;;;;;;;12.07;10.65;;;18.10;99.90;;;;;;2104944;28;20030;-73
2022/07/31 04:29:57;;;;;;;11.98;10.35;;;18.40;99.90;;;;;;2105032;28;20472;-73
2022/07/31 04:30:57;;;;;;;11.27;10.18;;;18.70;99.90;;;;;;2105331;28;20099;-74
2022/07/31 04:31:58;;;;;;;11.32;10.20;;;18.90;99.90;;;;;;2096974;28;20187;-74
2022/07/31 04:33:06;;;;;;;11.05;9.85;;;19.10;99.90;;;;;;2097986;28;20091;-75
2022/07/31 04:34:07;;;;;;;10.90;9.90;;;19.30;99.90;;;;;;2105540;28;20016;-74
2022/07/31 04:35:08;;;;;;;10.98;9.70;;;19.50;99.90;;;;;;2105361;28;20028;-74
2022/07/31 04:36:09;;;;;;;10.90;9.80;;;19.70;99.90;;;;;;2105285;28;20016;-74
2022/07/31 04:37:10;;;;;;;10.45;9.45;;;19.90;99.90;;;;;;2104961;28;20134;-75
2022/07/31 04:38:11;;;;;;;10.52;9.50;;;20.10;99.90;;;;;;2097195;28;20025;-74
2022/07/31 04:39:12;;;;;;;10.60;9.50;;;20.30;99.90;;;;;;2096748;28;20545;-75
2022/07/31 04:40:13;;;;;;;10.18;9.15;;;20.50;99.90;;;;;;2096009;28;20044;-73
2022/07/31 04:41:16;;;;;;;9.95;9.00;;;20.70;99.90;;;;;;2096601;28;20016;-74
2022/07/31 04:42:17;;;;;;;9.98;8.98;;;20.80;99.90;;;;;;2096695;28;20029;-73
2022/07/31 04:43:18;;;;;;;10.43;8.93;;;21.00;99.90;;;;;;2105533;28;20428;-73
2022/07/31 04:44:19;;;;;;;10.02;8.45;;;21.10;99.90;;;;;;2106294;28;20022;-74
2022/07/31 04:45:26;;;;;;;9.50;8.50;;;21.20;99.90;;;;;;2105786;28;20114;-72
2022/07/31 04:46:27;;;;;;;9.55;8.65;;;21.30;99.90;;;;;;2105982;28;20035;-74
2022/07/31 04:47:30;;;;;;;9.65;8.75;;;21.50;99.90;;;;;;2097896;28;20105;-75
2022/07/31 04:48:31;;;;;;;9.40;8.60;;;21.50;99.90;;;;;;2105637;28;20016;-74
2022/07/31 04:49:33;;;;;;;9.75;8.75;;;21.70;99.90;;;;;;2105999;28;20047;-73
2022/07/31 04:50:36;;;;;;;10.07;9.02;;;21.80;99.90;;;;;;2097579;28;20032;-73
2022/07/31 04:51:37;;;;;;;9.48;8.57;;;21.90;99.90;;;;;;2097517;28;20024;-74
2022/07/31 04:52:38;;;;;;;9.00;8.10;;;21.90;99.90;;;;;;2097485;28;20478;-73
2022/07/31 04:53:52;;;;;;;9.48;7.90;;;22.00;99.90;;;;;;2098830;28;20046;-74
2022/07/31 04:54:55;;;;;;;8.73;7.82;;;22.10;99.90;;;;;;2097560;28;20020;-74
2022/07/31 04:57:15;;;;;;;9.63;7.45;;;22.30;99.90;;;;;;2099216;28;20532;-76
2022/07/31 04:58:16;;;;;;;8.38;7.47;;;22.50;99.90;;;;;;2105090;28;20078;-73
2022/07/31 04:59:21;;;;;;;8.45;7.55;;;22.60;99.90;;;;;;2096687;28;20640;-74
2022/07/31 05:00:23;;;;;;;8.50;7.70;;;22.70;99.90;;;;;;2089978;28;20056;-74
2022/07/31 05:01:24;;;;;;;8.32;7.55;;;22.80;99.90;;;;;;2096708;28;20023;-74
2022/07/31 05:02:25;;;;;;;8.15;7.35;;;22.90;99.90;;;;;;2096687;28;20533;-77
2022/07/31 05:03:26;;;;;;;8.65;7.82;;;23.00;99.90;;;;;;2105163;28;20422;-74
2022/07/31 05:04:27;;;;;;;8.38;7.55;;;23.00;99.90;;;;;;2105064;28;20035;-74
2022/07/31 05:05:28;;;;;;;7.93;7.13;;;23.10;99.90;;;;;;2104947;28;20024;-75
2022/07/31 05:06:36;;;;;;;7.85;7.03;;;23.20;99.90;;;;;;2097168;28;20094;-73
2022/07/31 05:07:37;;;;;;;9.02;7.38;;;23.20;99.90;;;;;;2105241;28;20389;-73
2022/07/31 05:08:46;;;;;;;8.40;7.50;;;23.30;99.90;;;;;;2098228;28;20064;-74
2022/07/31 05:09:46;;;;;;;8.27;7.20;;;23.40;99.90;;;;;;2096818;28;20544;-74
2022/07/31 05:12:13;;;;;;;7.00;6.40;;;23.60;99.90;;;;;;2109236;28;20058;-75
2022/07/31 05:13:23;;;;;;;6.97;6.38;;;23.70;99.90;;;;;;2106382;28;20031;-73
2022/07/31 05:14:24;;;;;;;8.02;6.65;;;23.70;99.90;;;;;;2096923;28;20049;-72
2022/07/31 05:15:26;;;;;;;9.38;6.25;;;23.70;99.90;;;;;;2097904;28;20124;-73
2022/07/31 05:16:30;;;;;;;7.75;7.00;;;23.80;99.90;;;;;;2106235;28;20024;-75
2022/07/31 05:17:34;;;;;;;7.82;6.72;;;23.70;99.90;;;;;;2098369;28;20032;-76
2022/07/31 05:18:59;;;;;;;7.78;6.90;;;23.60;99.90;;;;;;2109452;28;20019;-74
2022/07/31 05:20:18;;;;;;;6.80;6.20;;;23.60;99.90;;;;;;2115394;28;20110;-75
2022/07/31 05:21:43;;;;;;;6.78;6.18;;;23.70;99.80;;;;;;2116278;28;20039;-75
2022/07/31 05:23:04;;;;;;;7.05;6.35;;;23.90;99.50;;;;;;2091758;28;20150;-74
2022/07/31 05:24:25;;;;;;;;;;;24.10;98.70;;;;;;2113374;28;20070;-75
2022/07/31 05:25:52;;;;;;;6.88;6.15;;;24.10;97.90;;;;;;2112846;28;19955;-72
2022/07/31 05:26:53;;;;;;;7.15;6.45;;;24.30;97.30;;;;;;2114758;28;20031;-74
2022/07/31 05:27:53;;;;;;;6.68;5.97;;;24.20;97.10;;;;;;2105396;28;20024;-74
2022/07/31 05:28:55;;;;;;;6.53;5.93;;;24.30;97.00;;;;;;2097324;28;20134;-74
2022/07/31 05:29:56;;;;;;;7.20;5.70;;;24.30;96.70;;;;;;2088912;28;20483;-74
2022/07/31 05:30:57;;;;;;;6.18;5.57;;;24.40;96.40;;;;;;2088695;28;20086;-74
2022/07/31 05:31:58;;;;;;;5.68;5.07;;;24.50;95.90;;;;;;2088975;28;20156;-74
2022/07/31 05:33:09;;;;;;;5.72;5.22;;;24.60;95.70;;;;;;2098624;28;20397;-74